sensor_id;sensor_type;location;lat;lon;timestamp;temperature;humidity
1297;DHT22;641;48.492;9.184;2024-02-26T00:02:16;7.70;75.80
1297;DHT22;641;48.492;9.184;2024-02-26T00:04:42;7.70;75.60
1297;DHT22;641;48.492;9.184;2024-02-26T00:07:07;7.70;75.50
1297;DHT22;641;48.492;9.184;2024-02-26T00:09:33;7.70;76.20
1297;DHT22;641;48.492;9.184;2024-02-26T00:12:02;7.80;75.70
1297;DHT22;641;48.492;9.184;2024-02-26T00:14:29;7.70;76.70
1297;DHT22;641;48.492;9.184;2024-02-26T00:16:55;7.70;76.90
1297;DHT22;641;48.492;9.184;2024-02-26T00:19:21;7.70;76.30
1297;DHT22;641;48.492;9.184;2024-02-26T00:21:46;7.70;76.80
1297;DHT22;641;48.492;9.184;2024-02-26T00:24:12;7.70;76.60
1297;DHT22;641;48.492;9.184;2024-02-26T00:26:38;7.70;77.40
1297;DHT22;641;48.492;9.184;2024-02-26T00:29:04;7.60;76.50
1297;DHT22;641;48.492;9.184;2024-02-26T00:31:29;7.60;77.10
1297;DHT22;641;48.492;9.184;2024-02-26T00:33:55;7.60;76.20
1297;DHT22;641;48.492;9.184;2024-02-26T00:36:21;7.60;77.80
1297;DHT22;641;48.492;9.184;2024-02-26T00:38:46;7.60;76.30
1297;DHT22;641;48.492;9.184;2024-02-26T00:41:17;7.60;77.20
1297;DHT22;641;48.492;9.184;2024-02-26T00:43:43;7.60;77.40
1297;DHT22;641;48.492;9.184;2024-02-26T00:46:08;7.60;76.30
1297;DHT22;641;48.492;9.184;2024-02-26T00:48:34;7.60;75.30
1297;DHT22;641;48.492;9.184;2024-02-26T00:51:00;7.60;77.10
1297;DHT22;641;48.492;9.184;2024-02-26T00:53:25;7.50;75.20
1297;DHT22;641;48.492;9.184;2024-02-26T00:55:51;7.60;76.00
1297;DHT22;641;48.492;9.184;2024-02-26T00:58:16;7.50;76.80
1297;DHT22;641;48.492;9.184;2024-02-26T01:00:42;7.60;77.30
1297;DHT22;641;48.492;9.184;2024-02-26T01:03:08;7.50;76.00
1297;DHT22;641;48.492;9.184;2024-02-26T01:05:35;7.50;75.00
1297;DHT22;641;48.492;9.184;2024-02-26T01:08:01;7.50;73.90
1297;DHT22;641;48.492;9.184;2024-02-26T01:10:28;7.50;75.30
1297;DHT22;641;48.492;9.184;2024-02-26T01:12:53;7.50;75.00
1297;DHT22;641;48.492;9.184;2024-02-26T01:15:19;7.60;74.80
1297;DHT22;641;48.492;9.184;2024-02-26T01:17:47;7.60;75.90
1297;DHT22;641;48.492;9.184;2024-02-26T01:20:13;7.60;76.60
1297;DHT22;641;48.492;9.184;2024-02-26T01:22:38;7.50;76.30
1297;DHT22;641;48.492;9.184;2024-02-26T01:25:06;7.50;77.20
1297;DHT22;641;48.492;9.184;2024-02-26T01:27:32;7.50;77.20
1297;DHT22;641;48.492;9.184;2024-02-26T01:29:58;7.50;78.30
1297;DHT22;641;48.492;9.184;2024-02-26T01:32:24;7.50;78.60
1297;DHT22;641;48.492;9.184;2024-02-26T01:34:49;7.40;75.90
1297;DHT22;641;48.492;9.184;2024-02-26T01:37:15;7.40;77.10
1297;DHT22;641;48.492;9.184;2024-02-26T01:39:40;7.50;74.70
1297;DHT22;641;48.492;9.184;2024-02-26T01:42:07;7.50;74.80
1297;DHT22;641;48.492;9.184;2024-02-26T01:44:33;7.50;75.00
1297;DHT22;641;48.492;9.184;2024-02-26T01:46:59;7.50;75.00
1297;DHT22;641;48.492;9.184;2024-02-26T01:49:27;7.50;80.20
1297;DHT22;641;48.492;9.184;2024-02-26T01:51:54;7.50;76.20
1297;DHT22;641;48.492;9.184;2024-02-26T01:54:20;7.40;74.30
1297;DHT22;641;48.492;9.184;2024-02-26T01:56:46;7.40;79.80
1297;DHT22;641;48.492;9.184;2024-02-26T01:59:12;7.40;84.10
1297;DHT22;641;48.492;9.184;2024-02-26T02:01:40;7.40;81.20
1297;DHT22;641;48.492;9.184;2024-02-26T02:04:07;7.40;83.10
1297;DHT22;641;48.492;9.184;2024-02-26T02:06:33;7.40;82.90
1297;DHT22;641;48.492;9.184;2024-02-26T02:08:59;7.50;80.70
1297;DHT22;641;48.492;9.184;2024-02-26T02:11:32;7.50;79.60
1297;DHT22;641;48.492;9.184;2024-02-26T02:13:58;7.50;78.50
1297;DHT22;641;48.492;9.184;2024-02-26T02:16:23;7.50;79.10
1297;DHT22;641;48.492;9.184;2024-02-26T02:18:49;7.40;80.80
1297;DHT22;641;48.492;9.184;2024-02-26T02:21:14;7.30;84.30
1297;DHT22;641;48.492;9.184;2024-02-26T02:23:40;7.10;85.60
1297;DHT22;641;48.492;9.184;2024-02-26T02:26:08;7.00;86.60
1297;DHT22;641;48.492;9.184;2024-02-26T02:28:33;6.90;89.10
1297;DHT22;641;48.492;9.184;2024-02-26T02:30:59;6.90;88.70
1297;DHT22;641;48.492;9.184;2024-02-26T02:33:26;6.90;87.00
1297;DHT22;641;48.492;9.184;2024-02-26T02:35:52;6.90;85.70
1297;DHT22;641;48.492;9.184;2024-02-26T02:38:19;7.00;84.20
1297;DHT22;641;48.492;9.184;2024-02-26T02:40:45;7.00;87.00
1297;DHT22;641;48.492;9.184;2024-02-26T02:43:10;7.00;90.10
1297;DHT22;641;48.492;9.184;2024-02-26T02:45:36;7.10;90.10
1297;DHT22;641;48.492;9.184;2024-02-26T02:48:02;7.10;90.30
1297;DHT22;641;48.492;9.184;2024-02-26T02:50:27;7.00;87.20
1297;DHT22;641;48.492;9.184;2024-02-26T02:52:54;7.00;89.90
1297;DHT22;641;48.492;9.184;2024-02-26T02:55:20;7.00;86.70
1297;DHT22;641;48.492;9.184;2024-02-26T02:57:45;7.00;86.60
1297;DHT22;641;48.492;9.184;2024-02-26T03:00:11;7.00;86.80
1297;DHT22;641;48.492;9.184;2024-02-26T03:02:37;7.00;89.90
1297;DHT22;641;48.492;9.184;2024-02-26T03:05:04;7.00;86.30
1297;DHT22;641;48.492;9.184;2024-02-26T03:07:29;7.10;85.60
1297;DHT22;641;48.492;9.184;2024-02-26T03:09:55;7.00;85.00
1297;DHT22;641;48.492;9.184;2024-02-26T03:12:21;7.10;89.20
1297;DHT22;641;48.492;9.184;2024-02-26T03:14:46;7.00;90.30
1297;DHT22;641;48.492;9.184;2024-02-26T03:17:12;6.90;91.60
1297;DHT22;641;48.492;9.184;2024-02-26T03:19:37;6.90;91.40
1297;DHT22;641;48.492;9.184;2024-02-26T03:22:03;6.90;90.70
1297;DHT22;641;48.492;9.184;2024-02-26T03:24:29;7.00;89.50
1297;DHT22;641;48.492;9.184;2024-02-26T03:26:54;7.00;90.50
1297;DHT22;641;48.492;9.184;2024-02-26T03:29:20;6.90;90.90
1297;DHT22;641;48.492;9.184;2024-02-26T03:31:45;6.80;91.40
1297;DHT22;641;48.492;9.184;2024-02-26T03:34:11;6.80;91.60
1297;DHT22;641;48.492;9.184;2024-02-26T03:36:38;6.80;91.90
1297;DHT22;641;48.492;9.184;2024-02-26T03:39:03;6.90;93.20
1297;DHT22;641;48.492;9.184;2024-02-26T03:41:33;6.90;93.40
1297;DHT22;641;48.492;9.184;2024-02-26T03:43:59;6.90;92.30
1297;DHT22;641;48.492;9.184;2024-02-26T03:46:25;6.90;92.10
1297;DHT22;641;48.492;9.184;2024-02-26T03:48:50;6.90;90.80
1297;DHT22;641;48.492;9.184;2024-02-26T03:51:16;6.90;91.60
1297;DHT22;641;48.492;9.184;2024-02-26T03:53:42;6.90;92.00
1297;DHT22;641;48.492;9.184;2024-02-26T03:56:07;6.90;91.30
1297;DHT22;641;48.492;9.184;2024-02-26T03:58:33;6.90;91.50
1297;DHT22;641;48.492;9.184;2024-02-26T04:01:01;6.80;91.50
1297;DHT22;641;48.492;9.184;2024-02-26T04:03:27;6.80;92.60
1297;DHT22;641;48.492;9.184;2024-02-26T04:05:52;6.70;93.70
1297;DHT22;641;48.492;9.184;2024-02-26T04:08:18;6.80;93.50
1297;DHT22;641;48.492;9.184;2024-02-26T04:10:44;6.70;93.80
1297;DHT22;641;48.492;9.184;2024-02-26T04:13:09;6.80;93.20
1297;DHT22;641;48.492;9.184;2024-02-26T04:15:35;6.70;92.50
1297;DHT22;641;48.492;9.184;2024-02-26T04:18:00;6.70;93.90
1297;DHT22;641;48.492;9.184;2024-02-26T04:20:26;6.70;93.90
1297;DHT22;641;48.492;9.184;2024-02-26T04:22:51;6.70;93.20
1297;DHT22;641;48.492;9.184;2024-02-26T04:25:18;6.80;94.40
1297;DHT22;641;48.492;9.184;2024-02-26T04:27:43;6.80;90.30
1297;DHT22;641;48.492;9.184;2024-02-26T04:30:09;6.80;91.80
1297;DHT22;641;48.492;9.184;2024-02-26T04:32:35;6.70;91.40
1297;DHT22;641;48.492;9.184;2024-02-26T04:35:02;6.70;91.50
1297;DHT22;641;48.492;9.184;2024-02-26T04:37:28;6.70;91.90
1297;DHT22;641;48.492;9.184;2024-02-26T04:40:00;6.60;92.90
1297;DHT22;641;48.492;9.184;2024-02-26T04:42:26;6.60;91.40
1297;DHT22;641;48.492;9.184;2024-02-26T04:44:52;6.60;90.80
1297;DHT22;641;48.492;9.184;2024-02-26T04:47:18;6.70;90.80
1297;DHT22;641;48.492;9.184;2024-02-26T04:49:43;6.70;92.50
1297;DHT22;641;48.492;9.184;2024-02-26T04:52:09;6.70;91.40
1297;DHT22;641;48.492;9.184;2024-02-26T04:54:35;6.80;89.60
1297;DHT22;641;48.492;9.184;2024-02-26T04:57:00;6.80;89.10
1297;DHT22;641;48.492;9.184;2024-02-26T04:59:26;6.80;90.80
1297;DHT22;641;48.492;9.184;2024-02-26T05:01:51;6.80;89.20
1297;DHT22;641;48.492;9.184;2024-02-26T05:04:18;6.90;88.80
1297;DHT22;641;48.492;9.184;2024-02-26T05:06:44;7.00;90.10
1297;DHT22;641;48.492;9.184;2024-02-26T05:09:10;7.00;90.90
1297;DHT22;641;48.492;9.184;2024-02-26T05:11:35;7.00;90.80
1297;DHT22;641;48.492;9.184;2024-02-26T05:14:01;7.00;90.90
1297;DHT22;641;48.492;9.184;2024-02-26T05:16:26;6.90;90.90
1297;DHT22;641;48.492;9.184;2024-02-26T05:18:53;7.00;91.50
1297;DHT22;641;48.492;9.184;2024-02-26T05:21:18;7.10;90.90
1297;DHT22;641;48.492;9.184;2024-02-26T05:23:44;7.10;90.20
1297;DHT22;641;48.492;9.184;2024-02-26T05:26:10;7.10;91.00
1297;DHT22;641;48.492;9.184;2024-02-26T05:28:36;7.10;91.10
1297;DHT22;641;48.492;9.184;2024-02-26T05:31:04;7.00;92.00
1297;DHT22;641;48.492;9.184;2024-02-26T05:33:30;6.70;93.40
1297;DHT22;641;48.492;9.184;2024-02-26T05:35:56;6.70;94.00
1297;DHT22;641;48.492;9.184;2024-02-26T05:38:21;6.60;94.60
1297;DHT22;641;48.492;9.184;2024-02-26T05:40:47;6.70;94.00
1297;DHT22;641;48.492;9.184;2024-02-26T05:43:12;6.70;96.00
1297;DHT22;641;48.492;9.184;2024-02-26T05:45:40;6.60;95.10
1297;DHT22;641;48.492;9.184;2024-02-26T05:48:06;6.60;95.70
1297;DHT22;641;48.492;9.184;2024-02-26T05:50:32;6.50;96.10
1297;DHT22;641;48.492;9.184;2024-02-26T05:52:57;6.40;96.70
1297;DHT22;641;48.492;9.184;2024-02-26T05:55:23;6.20;96.90
1297;DHT22;641;48.492;9.184;2024-02-26T05:57:48;6.20;96.50
1297;DHT22;641;48.492;9.184;2024-02-26T06:00:15;6.30;95.30
1297;DHT22;641;48.492;9.184;2024-02-26T06:02:40;6.30;95.70
1297;DHT22;641;48.492;9.184;2024-02-26T06:05:06;6.30;96.00
1297;DHT22;641;48.492;9.184;2024-02-26T06:07:34;6.30;96.10
1297;DHT22;641;48.492;9.184;2024-02-26T06:10:00;6.30;97.30
1297;DHT22;641;48.492;9.184;2024-02-26T06:12:26;6.40;98.00
1297;DHT22;641;48.492;9.184;2024-02-26T06:14:53;6.30;97.70
1297;DHT22;641;48.492;9.184;2024-02-26T06:17:19;6.40;97.30
1297;DHT22;641;48.492;9.184;2024-02-26T06:19:45;6.20;96.90
1297;DHT22;641;48.492;9.184;2024-02-26T06:22:10;6.20;97.90
1297;DHT22;641;48.492;9.184;2024-02-26T06:24:36;6.30;99.50
1297;DHT22;641;48.492;9.184;2024-02-26T06:27:02;6.30;98.10
1297;DHT22;641;48.492;9.184;2024-02-26T06:29:28;6.20;97.30
1297;DHT22;641;48.492;9.184;2024-02-26T06:31:53;6.10;98.30
1297;DHT22;641;48.492;9.184;2024-02-26T06:34:19;6.10;98.20
1297;DHT22;641;48.492;9.184;2024-02-26T06:36:44;6.20;98.80
1297;DHT22;641;48.492;9.184;2024-02-26T06:39:10;6.30;99.40
1297;DHT22;641;48.492;9.184;2024-02-26T06:41:36;6.30;98.90
1297;DHT22;641;48.492;9.184;2024-02-26T06:44:02;6.30;98.80
1297;DHT22;641;48.492;9.184;2024-02-26T06:46:27;6.30;98.50
1297;DHT22;641;48.492;9.184;2024-02-26T06:48:56;6.50;99.50
1297;DHT22;641;48.492;9.184;2024-02-26T06:51:22;6.50;97.70
1297;DHT22;641;48.492;9.184;2024-02-26T06:53:48;6.40;98.10
1297;DHT22;641;48.492;9.184;2024-02-26T06:56:14;6.50;97.40
1297;DHT22;641;48.492;9.184;2024-02-26T06:58:39;6.50;95.90
1297;DHT22;641;48.492;9.184;2024-02-26T07:01:05;6.50;95.90
1297;DHT22;641;48.492;9.184;2024-02-26T07:03:31;6.50;96.20
1297;DHT22;641;48.492;9.184;2024-02-26T07:05:58;6.70;98.70
1297;DHT22;641;48.492;9.184;2024-02-26T07:08:23;6.70;96.70
1297;DHT22;641;48.492;9.184;2024-02-26T07:10:49;6.70;97.10
1297;DHT22;641;48.492;9.184;2024-02-26T07:13:14;6.80;98.10
1297;DHT22;641;48.492;9.184;2024-02-26T07:15:40;6.80;97.50
1297;DHT22;641;48.492;9.184;2024-02-26T07:18:05;6.80;99.00
1297;DHT22;641;48.492;9.184;2024-02-26T07:20:31;6.90;97.30
1297;DHT22;641;48.492;9.184;2024-02-26T07:22:57;6.80;97.90
1297;DHT22;641;48.492;9.184;2024-02-26T07:25:23;6.80;98.60
1297;DHT22;641;48.492;9.184;2024-02-26T07:27:50;6.80;97.20
1297;DHT22;641;48.492;9.184;2024-02-26T07:30:16;6.80;97.60
1297;DHT22;641;48.492;9.184;2024-02-26T07:32:42;6.80;97.70
1297;DHT22;641;48.492;9.184;2024-02-26T07:35:08;7.00;97.80
1297;DHT22;641;48.492;9.184;2024-02-26T07:37:33;7.00;97.20
1297;DHT22;641;48.492;9.184;2024-02-26T07:40:00;7.00;97.40
1297;DHT22;641;48.492;9.184;2024-02-26T07:42:25;7.20;97.40
1297;DHT22;641;48.492;9.184;2024-02-26T07:44:51;7.10;96.90
1297;DHT22;641;48.492;9.184;2024-02-26T07:47:18;7.10;96.40
1297;DHT22;641;48.492;9.184;2024-02-26T07:49:43;7.10;96.30
1297;DHT22;641;48.492;9.184;2024-02-26T07:52:10;7.10;97.10
1297;DHT22;641;48.492;9.184;2024-02-26T07:54:35;7.20;97.70
1297;DHT22;641;48.492;9.184;2024-02-26T07:57:01;7.30;98.10
1297;DHT22;641;48.492;9.184;2024-02-26T07:59:29;7.40;98.00
1297;DHT22;641;48.492;9.184;2024-02-26T08:01:54;7.40;98.10
1297;DHT22;641;48.492;9.184;2024-02-26T08:04:20;7.40;97.20
1297;DHT22;641;48.492;9.184;2024-02-26T08:06:45;7.40;96.30
1297;DHT22;641;48.492;9.184;2024-02-26T08:09:11;7.30;94.00
1297;DHT22;641;48.492;9.184;2024-02-26T08:11:38;7.30;95.00
1297;DHT22;641;48.492;9.184;2024-02-26T08:14:03;7.40;96.60
1297;DHT22;641;48.492;9.184;2024-02-26T08:16:29;7.40;96.50
1297;DHT22;641;48.492;9.184;2024-02-26T08:18:55;7.40;96.30
1297;DHT22;641;48.492;9.184;2024-02-26T08:21:20;7.50;95.50
1297;DHT22;641;48.492;9.184;2024-02-26T08:23:46;7.60;95.70
1297;DHT22;641;48.492;9.184;2024-02-26T08:26:12;7.70;95.10
1297;DHT22;641;48.492;9.184;2024-02-26T08:28:38;7.70;95.60
1297;DHT22;641;48.492;9.184;2024-02-26T08:31:03;7.80;95.50
1297;DHT22;641;48.492;9.184;2024-02-26T08:33:29;7.90;96.00
1297;DHT22;641;48.492;9.184;2024-02-26T08:35:56;7.90;95.70
1297;DHT22;641;48.492;9.184;2024-02-26T08:38:22;8.00;94.90
1297;DHT22;641;48.492;9.184;2024-02-26T08:40:48;8.00;94.70
1297;DHT22;641;48.492;9.184;2024-02-26T08:43:14;8.10;93.90
1297;DHT22;641;48.492;9.184;2024-02-26T08:45:39;8.10;94.20
1297;DHT22;641;48.492;9.184;2024-02-26T08:48:05;8.20;93.90
1297;DHT22;641;48.492;9.184;2024-02-26T08:50:31;8.10;91.60
1297;DHT22;641;48.492;9.184;2024-02-26T08:52:56;8.20;92.50
1297;DHT22;641;48.492;9.184;2024-02-26T08:55:22;8.30;92.60
1297;DHT22;641;48.492;9.184;2024-02-26T08:57:48;8.30;92.70
1297;DHT22;641;48.492;9.184;2024-02-26T09:00:14;8.20;92.90
1297;DHT22;641;48.492;9.184;2024-02-26T09:02:41;8.30;93.60
1297;DHT22;641;48.492;9.184;2024-02-26T09:05:09;8.40;94.30
1297;DHT22;641;48.492;9.184;2024-02-26T09:07:35;8.40;94.70
1297;DHT22;641;48.492;9.184;2024-02-26T09:10:01;8.40;93.90
1297;DHT22;641;48.492;9.184;2024-02-26T09:12:27;8.40;93.50
1297;DHT22;641;48.492;9.184;2024-02-26T09:14:52;8.40;94.10
1297;DHT22;641;48.492;9.184;2024-02-26T09:17:18;8.50;94.90
1297;DHT22;641;48.492;9.184;2024-02-26T09:19:43;8.50;93.80
1297;DHT22;641;48.492;9.184;2024-02-26T09:22:09;8.50;93.10
1297;DHT22;641;48.492;9.184;2024-02-26T09:24:36;8.50;93.30
1297;DHT22;641;48.492;9.184;2024-02-26T09:27:02;8.50;94.00
1297;DHT22;641;48.492;9.184;2024-02-26T09:29:27;8.50;94.70
1297;DHT22;641;48.492;9.184;2024-02-26T09:31:53;8.60;95.40
1297;DHT22;641;48.492;9.184;2024-02-26T09:34:18;8.60;95.60
1297;DHT22;641;48.492;9.184;2024-02-26T09:36:44;8.80;94.30
1297;DHT22;641;48.492;9.184;2024-02-26T09:39:09;8.80;93.10
1297;DHT22;641;48.492;9.184;2024-02-26T09:41:37;8.70;92.40
1297;DHT22;641;48.492;9.184;2024-02-26T09:44:04;8.80;93.00
1297;DHT22;641;48.492;9.184;2024-02-26T09:46:30;8.90;92.80
1297;DHT22;641;48.492;9.184;2024-02-26T09:48:56;9.00;93.40
1297;DHT22;641;48.492;9.184;2024-02-26T09:51:23;9.10;93.10
1297;DHT22;641;48.492;9.184;2024-02-26T09:53:52;9.20;92.20
1297;DHT22;641;48.492;9.184;2024-02-26T09:56:18;9.20;93.10
1297;DHT22;641;48.492;9.184;2024-02-26T09:58:44;9.20;93.10
1297;DHT22;641;48.492;9.184;2024-02-26T10:01:17;9.20;93.00
1297;DHT22;641;48.492;9.184;2024-02-26T10:03:43;9.20;93.70
1297;DHT22;641;48.492;9.184;2024-02-26T10:06:10;9.20;94.20
1297;DHT22;641;48.492;9.184;2024-02-26T10:08:36;9.30;94.20
1297;DHT22;641;48.492;9.184;2024-02-26T10:11:03;9.50;94.50
1297;DHT22;641;48.492;9.184;2024-02-26T10:13:29;9.60;93.40
1297;DHT22;641;48.492;9.184;2024-02-26T10:15:54;9.60;93.40
1297;DHT22;641;48.492;9.184;2024-02-26T10:18:20;9.70;94.20
1297;DHT22;641;48.492;9.184;2024-02-26T10:21:03;9.90;94.40
1297;DHT22;641;48.492;9.184;2024-02-26T10:23:29;10.00;93.20
1297;DHT22;641;48.492;9.184;2024-02-26T10:25:55;10.00;92.30
1297;DHT22;641;48.492;9.184;2024-02-26T10:28:22;10.00;93.50
1297;DHT22;641;48.492;9.184;2024-02-26T10:30:47;10.10;93.10
1297;DHT22;641;48.492;9.184;2024-02-26T10:33:13;10.00;91.50
1297;DHT22;641;48.492;9.184;2024-02-26T10:35:40;10.00;91.80
1297;DHT22;641;48.492;9.184;2024-02-26T10:38:10;10.10;92.20
1297;DHT22;641;48.492;9.184;2024-02-26T10:40:35;10.00;91.60
1297;DHT22;641;48.492;9.184;2024-02-26T10:43:02;10.00;91.30
1297;DHT22;641;48.492;9.184;2024-02-26T10:45:27;10.00;92.70
1297;DHT22;641;48.492;9.184;2024-02-26T10:47:53;10.00;92.60
1297;DHT22;641;48.492;9.184;2024-02-26T10:50:19;10.00;92.10
1297;DHT22;641;48.492;9.184;2024-02-26T10:52:45;10.00;91.70
1297;DHT22;641;48.492;9.184;2024-02-26T10:55:15;10.00;93.10
1297;DHT22;641;48.492;9.184;2024-02-26T10:57:45;10.10;93.00
1297;DHT22;641;48.492;9.184;2024-02-26T11:00:14;10.30;93.00
1297;DHT22;641;48.492;9.184;2024-02-26T11:02:41;10.30;91.70
1297;DHT22;641;48.492;9.184;2024-02-26T11:05:07;10.40;92.40
1297;DHT22;641;48.492;9.184;2024-02-26T11:07:36;10.40;92.30
1297;DHT22;641;48.492;9.184;2024-02-26T11:10:03;10.40;91.50
1297;DHT22;641;48.492;9.184;2024-02-26T11:12:31;10.40;92.00
1297;DHT22;641;48.492;9.184;2024-02-26T11:14:58;10.50;92.50
1297;DHT22;641;48.492;9.184;2024-02-26T11:17:26;10.50;93.20
1297;DHT22;641;48.492;9.184;2024-02-26T11:19:55;10.70;93.20
1297;DHT22;641;48.492;9.184;2024-02-26T11:22:21;10.70;93.40
1297;DHT22;641;48.492;9.184;2024-02-26T11:24:48;10.80;94.00
1297;DHT22;641;48.492;9.184;2024-02-26T11:27:16;10.80;93.10
1297;DHT22;641;48.492;9.184;2024-02-26T11:29:47;10.80;92.10
1297;DHT22;641;48.492;9.184;2024-02-26T11:32:13;10.70;91.20
1297;DHT22;641;48.492;9.184;2024-02-26T11:34:39;10.90;92.00
1297;DHT22;641;48.492;9.184;2024-02-26T11:37:13;10.90;91.80
1297;DHT22;641;48.492;9.184;2024-02-26T11:39:42;10.90;92.30
1297;DHT22;641;48.492;9.184;2024-02-26T11:42:08;11.00;92.00
1297;DHT22;641;48.492;9.184;2024-02-26T11:44:35;11.00;91.80
1297;DHT22;641;48.492;9.184;2024-02-26T11:47:13;11.20;91.90
1297;DHT22;641;48.492;9.184;2024-02-26T11:49:39;11.10;90.70
1297;DHT22;641;48.492;9.184;2024-02-26T11:52:08;11.00;91.80
1297;DHT22;641;48.492;9.184;2024-02-26T11:54:50;11.00;91.90
1297;DHT22;641;48.492;9.184;2024-02-26T11:57:30;11.20;91.60
1297;DHT22;641;48.492;9.184;2024-02-26T12:00:17;11.30;91.80
1297;DHT22;641;48.492;9.184;2024-02-26T12:02:50;11.30;92.10
1297;DHT22;641;48.492;9.184;2024-02-26T12:05:23;11.10;91.70
1297;DHT22;641;48.492;9.184;2024-02-26T12:07:59;11.30;91.50
1297;DHT22;641;48.492;9.184;2024-02-26T12:10:26;11.50;91.50
1297;DHT22;641;48.492;9.184;2024-02-26T12:15:32;11.60;92.00
1297;DHT22;641;48.492;9.184;2024-02-26T12:18:01;11.70;91.40
1297;DHT22;641;48.492;9.184;2024-02-26T12:20:27;12.00;90.40
1297;DHT22;641;48.492;9.184;2024-02-26T12:22:54;12.10;90.70
1297;DHT22;641;48.492;9.184;2024-02-26T12:25:29;12.10;90.00
1297;DHT22;641;48.492;9.184;2024-02-26T12:27:57;12.00;90.50
1297;DHT22;641;48.492;9.184;2024-02-26T12:30:23;11.80;90.90
1297;DHT22;641;48.492;9.184;2024-02-26T12:32:50;11.90;90.40
1297;DHT22;641;48.492;9.184;2024-02-26T12:35:16;11.90;89.90
1297;DHT22;641;48.492;9.184;2024-02-26T12:37:42;12.10;89.30
1297;DHT22;641;48.492;9.184;2024-02-26T12:40:09;12.10;89.00
1297;DHT22;641;48.492;9.184;2024-02-26T12:42:35;12.20;89.90
1297;DHT22;641;48.492;9.184;2024-02-26T12:45:11;12.30;88.10
1297;DHT22;641;48.492;9.184;2024-02-26T12:47:44;12.10;87.40
1297;DHT22;641;48.492;9.184;2024-02-26T12:50:16;12.30;87.00
1297;DHT22;641;48.492;9.184;2024-02-26T12:52:47;12.20;86.50
1297;DHT22;641;48.492;9.184;2024-02-26T12:55:18;12.10;87.90
1297;DHT22;641;48.492;9.184;2024-02-26T12:57:45;12.20;89.40
1297;DHT22;641;48.492;9.184;2024-02-26T13:00:16;12.30;90.30
1297;DHT22;641;48.492;9.184;2024-02-26T13:02:43;12.30;90.30
1297;DHT22;641;48.492;9.184;2024-02-26T13:05:11;12.40;90.30
1297;DHT22;641;48.492;9.184;2024-02-26T13:07:41;12.40;88.90
1297;DHT22;641;48.492;9.184;2024-02-26T13:10:08;12.30;91.40
1297;DHT22;641;48.492;9.184;2024-02-26T13:12:34;13.50;92.00
1297;DHT22;641;48.492;9.184;2024-02-26T13:15:03;14.00;91.40
1297;DHT22;641;48.492;9.184;2024-02-26T13:17:32;14.00;88.70
1297;DHT22;641;48.492;9.184;2024-02-26T13:19:58;13.70;86.80
1297;DHT22;641;48.492;9.184;2024-02-26T13:22:24;13.50;86.40
1297;DHT22;641;48.492;9.184;2024-02-26T13:24:56;13.80;90.70
1297;DHT22;641;48.492;9.184;2024-02-26T13:27:23;14.20;87.90
1297;DHT22;641;48.492;9.184;2024-02-26T13:30:05;13.90;83.10
1297;DHT22;641;48.492;9.184;2024-02-26T13:32:38;13.50;84.90
1297;DHT22;641;48.492;9.184;2024-02-26T13:35:11;13.30;84.60
1297;DHT22;641;48.492;9.184;2024-02-26T13:37:39;13.00;83.10
1297;DHT22;641;48.492;9.184;2024-02-26T13:40:08;12.90;85.00
1297;DHT22;641;48.492;9.184;2024-02-26T13:42:39;12.90;87.70
1297;DHT22;641;48.492;9.184;2024-02-26T13:45:05;12.90;88.10
1297;DHT22;641;48.492;9.184;2024-02-26T13:47:34;13.00;85.30
1297;DHT22;641;48.492;9.184;2024-02-26T13:50:00;12.90;83.90
1297;DHT22;641;48.492;9.184;2024-02-26T13:52:29;12.90;85.60
1297;DHT22;641;48.492;9.184;2024-02-26T13:54:57;13.00;84.90
1297;DHT22;641;48.492;9.184;2024-02-26T13:57:22;13.10;84.60
1297;DHT22;641;48.492;9.184;2024-02-26T13:59:48;13.10;83.30
1297;DHT22;641;48.492;9.184;2024-02-26T14:02:14;12.90;84.70
1297;DHT22;641;48.492;9.184;2024-02-26T14:04:40;12.80;84.70
1297;DHT22;641;48.492;9.184;2024-02-26T14:07:05;12.80;85.50
1297;DHT22;641;48.492;9.184;2024-02-26T14:09:32;12.80;84.10
1297;DHT22;641;48.492;9.184;2024-02-26T14:11:58;12.80;84.60
1297;DHT22;641;48.492;9.184;2024-02-26T14:14:24;12.80;82.30
1297;DHT22;641;48.492;9.184;2024-02-26T14:16:51;12.70;84.50
1297;DHT22;641;48.492;9.184;2024-02-26T14:19:16;12.80;84.00
1297;DHT22;641;48.492;9.184;2024-02-26T14:21:42;12.80;85.50
1297;DHT22;641;48.492;9.184;2024-02-26T14:24:07;12.90;84.10
1297;DHT22;641;48.492;9.184;2024-02-26T14:26:34;12.90;82.20
1297;DHT22;641;48.492;9.184;2024-02-26T14:28:59;12.90;83.30
1297;DHT22;641;48.492;9.184;2024-02-26T14:31:25;12.90;81.50
1297;DHT22;641;48.492;9.184;2024-02-26T14:33:51;12.80;82.80
1297;DHT22;641;48.492;9.184;2024-02-26T14:36:21;12.70;78.90
1297;DHT22;641;48.492;9.184;2024-02-26T14:38:48;12.70;80.00
1297;DHT22;641;48.492;9.184;2024-02-26T14:41:13;12.60;81.50
1297;DHT22;641;48.492;9.184;2024-02-26T14:43:39;12.50;82.50
1297;DHT22;641;48.492;9.184;2024-02-26T14:46:04;12.50;83.30
1297;DHT22;641;48.492;9.184;2024-02-26T14:48:30;12.60;83.10
1297;DHT22;641;48.492;9.184;2024-02-26T14:50:57;12.60;82.40
1297;DHT22;641;48.492;9.184;2024-02-26T14:53:22;12.70;77.40
1297;DHT22;641;48.492;9.184;2024-02-26T14:55:48;12.80;73.40
1297;DHT22;641;48.492;9.184;2024-02-26T14:58:13;12.90;69.00
1297;DHT22;641;48.492;9.184;2024-02-26T15:00:39;12.90;70.30
1297;DHT22;641;48.492;9.184;2024-02-26T15:03:06;12.90;68.30
1297;DHT22;641;48.492;9.184;2024-02-26T15:05:33;12.90;68.40
1297;DHT22;641;48.492;9.184;2024-02-26T15:07:59;12.80;69.70
1297;DHT22;641;48.492;9.184;2024-02-26T15:10:25;12.80;68.70
1297;DHT22;641;48.492;9.184;2024-02-26T15:12:51;12.70;68.70
1297;DHT22;641;48.492;9.184;2024-02-26T15:15:23;12.70;69.30
1297;DHT22;641;48.492;9.184;2024-02-26T15:17:49;12.60;68.60
1297;DHT22;641;48.492;9.184;2024-02-26T15:20:15;12.60;69.60
1297;DHT22;641;48.492;9.184;2024-02-26T15:22:41;12.60;68.80
1297;DHT22;641;48.492;9.184;2024-02-26T15:25:07;12.60;68.60
1297;DHT22;641;48.492;9.184;2024-02-26T15:27:33;12.60;70.10
1297;DHT22;641;48.492;9.184;2024-02-26T15:29:59;12.50;71.60
1297;DHT22;641;48.492;9.184;2024-02-26T15:32:26;12.50;73.70
1297;DHT22;641;48.492;9.184;2024-02-26T15:34:55;12.40;73.30
1297;DHT22;641;48.492;9.184;2024-02-26T15:37:20;12.40;73.60
1297;DHT22;641;48.492;9.184;2024-02-26T15:39:46;12.30;75.40
1297;DHT22;641;48.492;9.184;2024-02-26T15:42:13;12.30;73.60
1297;DHT22;641;48.492;9.184;2024-02-26T15:44:38;12.30;73.20
1297;DHT22;641;48.492;9.184;2024-02-26T15:47:05;12.30;73.90
1297;DHT22;641;48.492;9.184;2024-02-26T15:49:31;12.20;74.30
1297;DHT22;641;48.492;9.184;2024-02-26T15:51:57;12.20;76.50
1297;DHT22;641;48.492;9.184;2024-02-26T15:54:22;12.20;75.00
1297;DHT22;641;48.492;9.184;2024-02-26T15:56:48;12.20;75.40
1297;DHT22;641;48.492;9.184;2024-02-26T15:59:13;12.10;76.80
1297;DHT22;641;48.492;9.184;2024-02-26T16:01:39;12.10;76.80
1297;DHT22;641;48.492;9.184;2024-02-26T16:04:04;12.10;76.70
1297;DHT22;641;48.492;9.184;2024-02-26T16:06:46;12.10;76.60
1297;DHT22;641;48.492;9.184;2024-02-26T16:09:12;12.00;77.70
1297;DHT22;641;48.492;9.184;2024-02-26T16:11:37;12.00;78.50
1297;DHT22;641;48.492;9.184;2024-02-26T16:16:41;11.90;78.90
1297;DHT22;641;48.492;9.184;2024-02-26T16:19:13;11.90;79.80
1297;DHT22;641;48.492;9.184;2024-02-26T16:21:41;11.80;80.70
1297;DHT22;641;48.492;9.184;2024-02-26T16:24:07;11.70;80.60
1297;DHT22;641;48.492;9.184;2024-02-26T16:26:32;11.70;80.60
1297;DHT22;641;48.492;9.184;2024-02-26T16:28:58;11.60;80.70
1297;DHT22;641;48.492;9.184;2024-02-26T16:31:23;11.60;81.90